Morro Bay, CA

10:45 PM PDT on September 30, 2014 (GMT -0700)
Paso Robles Municipal | Change Station
CLOSE
Current Station
Airport
Location: Paso Robles,
Elevation: 837 ft
Nearby Weather Stations
Active Advisory: Special Statement

Elev 837 ft 35.67 °N, 120.63 °W | Updated 52 minutes ago

Clear
Clear
64 °F
Feels Like 64 °F
N
18
Wind Variable Wind from NW

Today
High -- | Low -- °F
--% Chance of Precip.
Yesterday
High -- | Low -- °F
Precip. -- in
6:57 AM 6:48 PM
Waxing Crescent, 44% visible
Pressure 29.82 in
Visibility 10.0 miles
Clouds Clear
Dew Point 51 °F
Humidity 63%
Rainfall 0.00 in
Snow Depth 0 in , 0 in , 0 in
UV 0 out of 12
Pollen 5.60 out of 12
Air Quality Not available.
Flu Activity Not available.
METAR KPRB 010453Z AUTO 32016KT 10SM CLR 18/11 A2983 RMK AO2 SLP096 T01780106 TSNO $

More Conditions Fewer Conditions

Pressure 29.82 in
Visibility 10.0 miles
Clouds Clear
Dew Point 51 °F
Humidity 63%
Rainfall 0.00 in
Snow Depth 0 in , 0 in , 0 in
UV 0 out of 12
Pollen 5.60 out of 12
Air Quality Not available.
Flu Activity Not available.
METAR KPRB 010453Z AUTO 32016KT 10SM CLR 18/11 A2983 RMK AO2 SLP096 T01780106 TSNO $

More Conditions Fewer Conditions

10-Day Weather Forecast

Almanac

Astronomy

Sep. 30, 2014 Rise Set
Actual Time 6:57 AM PDT 6:48 PM PDT
Civil Twilight 6:32 AM PDT 7:13 PM PDT
Nautical Twilight 6:02 AM PDT 7:43 PM PDT
Astronomical Twilight 5:32 AM PDT 8:12 PM PDT
Moon 1:00 PM PDT (9/30) 11:33 PM PDT (9/30)
Length of Visible Light 12h 41m
Length of Day
11h 50m
Tomorrow will be 2m 11s shorter.
Waxing Crescent, 44% of the Moon is Illuminated
Oct 1
Waxing Crescent
Oct 1
First Quarter
Oct 8
Full
Oct 15
Last Quarter
Oct 23
New

Yesterday's Extremes

State Highs State Lows

Community

WunderPhotos

Upload Photos

1,757,875 photos uploaded!

Nearby

Snow Depth

Station Depth Elevation
Rubicon #2 0 in 7500 ft
Sonora Pass 0 in 8800 ft
Independence Camp 0 in 7000 ft
Adin Mountain 0 in 6200 ft
Echo Peak 1 in 7800 ft

Earthquake Activity

City Distance Mag. Time & Date
Shandon, California 39 miles 2.9 5:34 PM PDT
2014-09-30
South Dos Palos, California 86 miles 2.7 3:08 PM PDT
2014-09-30
South Dos Palos, California 86 miles 2.5 9:18 PM PDT
2014-09-29
South Dos Palos, California 86 miles 2.7 8:46 PM PDT
2014-09-28
Minimum magnitude displayed is 2.5.

Coastal Water Temperatures

Place Temperature
No Stations Reporting

Nearby Weather Stations